Terminal Aerodrome Forecast
Issued by NWS Sterling, VA

Current Version | Previous Version | Text Only | Print | Product List | Glossary On
Versions: 1 2 3 4 5 6 7 8 9 10 11 12 13 14 15
000
FTUS41 KLWX 250541
TAFCHO
TAF
KCHO 250541Z 2506/2606 VRB03KT P6SM FEW120 FEW250
     FM251000 VRB03KT 4SM BR FEW040 FEW250
     FM251200 VRB03KT P6SM FEW040 FEW250
     FM251600 05006KT P6SM FEW050 FEW250
     FM260500 VRB03KT P6SM FEW040 SCT250=

USA.gov is the U.S. government's official web portal to all federal, state and local government web resources and services.